Capt. Carl Page — WDC6538 — position and weather

sailwx.info

Track history (hours):
 
Tides and Currents Weather Stations Pressure Air Temp Water Temp Dewpoint Dewpoint Depression Visibility Wind Speed Wind Dir Waves Ship Positions

Capt. Carl Page

Owner: American Commercial Lines LLC, Jeffersonville, IN. More information available from US FCC via Universal Licensing System and Coast Guard Vessel Documentation Center.

Last reported at 2018-Jan-19 04:49 UTC. Time now 2018-Jan-20 02:53 UTC.
Position N 31°60' W 091°06'.

Length 55 m; draft 3.1 m.

Type: Towing. MMSI: 367057650.

Date/timePositionNaut miles runAvg speedWind from/ knotsBaromVisibWave heightAir tempDewpointWater temp
2018-Jan-19 04:49N 31°60' W 091°06'3 8.5
2018-Jan-19 04:30N 32°02' W 091°04'5 7.8
2018-Jan-19 03:53N 32°06' W 091°06'1 3.7
2018-Jan-19 03:31N 32°08' W 091°06'2 3.8
2018-Jan-19 03:01N 32°08' W 091°04'3 5.3
2018-Jan-19 02:31N 32°07' W 091°01'3 5.8
2018-Jan-19 02:00N 32°10' W 091°00'0 0.2
2018-Jan-19 01:31N 32°10' W 091°00'0 0.0
2018-Jan-19 01:00N 32°10' W 091°00'0 0.0
2018-Jan-19 00:31N 32°10' W 091°00'0 0.0
2018-Jan-19 00:01N 32°10' W 091°00'0 0.0
2018-Jan-18 23:31N 32°10' W 091°00'0 0.0
2018-Jan-18 23:01N 32°10' W 091°00'0 0.0
2018-Jan-18 22:30N 32°10' W 091°00'0 0.0
2018-Jan-18 22:00N 32°10' W 091°00'0 0.0
2018-Jan-18 21:30N 32°10' W 091°00'0 0.0
2018-Jan-18 21:00N 32°10' W 091°00'0 0.0
2018-Jan-18 20:31N 32°10' W 091°00'0 0.0
2018-Jan-18 20:00N 32°10' W 091°00'0 0.0
2018-Jan-18 19:30N 32°10' W 091°00'0 0.0
2018-Jan-18 19:01N 32°10' W 091°00'0 0.0
2018-Jan-18 18:30N 32°10' W 091°00'0 0.0
2018-Jan-18 18:01N 32°10' W 091°00'0 0.0
2018-Jan-18 17:31N 32°10' W 091°00'0 0.0
2018-Jan-18 17:01N 32°10' W 091°00'0 0.0
2018-Jan-18 16:29N 32°10' W 091°00'0 0.0
2018-Jan-18 16:00N 32°10' W 091°00'0 0.0
2018-Jan-18 15:31N 32°10' W 091°00'0 0.0
2018-Jan-18 15:01N 32°10' W 091°00'0 0.0
2018-Jan-18 14:30N 32°10' W 091°00'0 0.0
2018-Jan-18 14:01N 32°10' W 091°00'0 0.1
2018-Jan-18 13:29N 32°10' W 091°00'2 3.6
2018-Jan-18 13:00N 32°12' W 090°59'4 7.3
2018-Jan-18 12:31N 32°16' W 090°58'4 7.1
2018-Jan-18 12:01N 32°18' W 090°55'3 5.4
2018-Jan-18 11:31N 32°21' W 090°55'4 7.2
2018-Jan-18 11:01N 32°21' W 090°59'3 5.9
2018-Jan-18 10:30N 32°24' W 090°59'3 6.8
2018-Jan-18 10:01N 32°26' W 091°03'4 7.2
2018-Jan-18 09:31N 32°28' W 091°06'3 6.3
2018-Jan-18 09:01N 32°31' W 091°06'3 6.7
2018-Jan-18 08:30N 32°34' W 091°07'4 7.0
2018-Jan-18 08:00N 32°37' W 091°09'7 4.1
2018-Jan-18 06:16N 32°44' W 091°09'  
Track history (hours):
 
Tides and Currents Weather Stations Pressure Air Temp Water Temp Dewpoint Dewpoint Depression Visibility Wind Speed Wind Dir Waves Ship Positions

Capt. Carl Page

Owner: American Commercial Lines LLC, Jeffersonville, IN. More information available from US FCC via Universal Licensing System and Coast Guard Vessel Documentation Center.

Last reported at 2018-Jan-19 04:49 UTC. Time now 2018-Jan-20 02:53 UTC.
Position N 31°60' W 091°06'.

Length 55 m; draft 3.1 m.

Type: Towing. MMSI: 367057650.

Date/timePositionNaut miles runAvg speedWind from/ knotsBaromVisibWave heightAir tempDewpointWater temp
2018-Jan-19 04:49N 31°60' W 091°06'3 8.5
2018-Jan-19 04:30N 32°02' W 091°04'5 7.8
2018-Jan-19 03:53N 32°06' W 091°06'1 3.7
2018-Jan-19 03:31N 32°08' W 091°06'2 3.8
2018-Jan-19 03:01N 32°08' W 091°04'3 5.3
2018-Jan-19 02:31N 32°07' W 091°01'3 5.8
2018-Jan-19 02:00N 32°10' W 091°00'0 0.2
2018-Jan-19 01:31N 32°10' W 091°00'0 0.0
2018-Jan-19 01:00N 32°10' W 091°00'0 0.0
2018-Jan-19 00:31N 32°10' W 091°00'0 0.0
2018-Jan-19 00:01N 32°10' W 091°00'0 0.0
2018-Jan-18 23:31N 32°10' W 091°00'0 0.0
2018-Jan-18 23:01N 32°10' W 091°00'0 0.0
2018-Jan-18 22:30N 32°10' W 091°00'0 0.0
2018-Jan-18 22:00N 32°10' W 091°00'0 0.0
2018-Jan-18 21:30N 32°10' W 091°00'0 0.0
2018-Jan-18 21:00N 32°10' W 091°00'0 0.0
2018-Jan-18 20:31N 32°10' W 091°00'0 0.0
2018-Jan-18 20:00N 32°10' W 091°00'0 0.0
2018-Jan-18 19:30N 32°10' W 091°00'0 0.0
2018-Jan-18 19:01N 32°10' W 091°00'0 0.0
2018-Jan-18 18:30N 32°10' W 091°00'0 0.0
2018-Jan-18 18:01N 32°10' W 091°00'0 0.0
2018-Jan-18 17:31N 32°10' W 091°00'0 0.0
2018-Jan-18 17:01N 32°10' W 091°00'0 0.0
2018-Jan-18 16:29N 32°10' W 091°00'0 0.0
2018-Jan-18 16:00N 32°10' W 091°00'0 0.0
2018-Jan-18 15:31N 32°10' W 091°00'0 0.0
2018-Jan-18 15:01N 32°10' W 091°00'0 0.0
2018-Jan-18 14:30N 32°10' W 091°00'0 0.0
2018-Jan-18 14:01N 32°10' W 091°00'0 0.1
2018-Jan-18 13:29N 32°10' W 091°00'2 3.6
2018-Jan-18 13:00N 32°12' W 090°59'4 7.3
2018-Jan-18 12:31N 32°16' W 090°58'4 7.1
2018-Jan-18 12:01N 32°18' W 090°55'3 5.4
2018-Jan-18 11:31N 32°21' W 090°55'4 7.2
2018-Jan-18 11:01N 32°21' W 090°59'3 5.9
2018-Jan-18 10:30N 32°24' W 090°59'3 6.8
2018-Jan-18 10:01N 32°26' W 091°03'4 7.2
2018-Jan-18 09:31N 32°28' W 091°06'3 6.3
2018-Jan-18 09:01N 32°31' W 091°06'3 6.7
2018-Jan-18 08:30N 32°34' W 091°07'4 7.0
2018-Jan-18 08:00N 32°37' W 091°09'7 4.1
2018-Jan-18 06:16N 32°44' W 091°09'  

Dump ship's entire track history